Eureka, CA

7:46 PM PST on December 24, 2014 (GMT -0800)
Henderson Center | Change Station
CLOSE
Current Station
Personal Weather Station
Location: Eureka, CA
Elevation: 125 ft
Nearby Weather Stations

Elev 125 ft 40.78 °N, 124.17 °W | Updated 3 seconds ago

Mostly Cloudy
Mostly Cloudy
49.5 °F
Feels Like 48 °F
N
4.0
Wind Variable Wind from North
Gusts 8.7 mph

Today
High -- | Low -- °F
--% Chance of Precip.
Yesterday
High -- | Low -- °F
Precip. -- in
7:38 AM 4:53 PM
Waxing Crescent, 13% visible
Pressure 30.18 in
Visibility 10.0 miles
Clouds Few 7500 ft
Few 11000 ft
Windchill 48 °F
Dew Point 37 °F
Humidity 63%
Rainfall 0.31 in
Snow Depth Not available.
UV 0 out of 12
Pollen .30 out of 12
Air Quality Not available.
Flu Activity Not available.
METAR KACV 250253Z AUTO 00000KT 10SM FEW075 FEW110 07/04 A3016 RMK AO2 RAE19 SLP220 P0002 60003 T00720044 51021

More Conditions Fewer Conditions

Pressure 30.18 in
Visibility 10.0 miles
Clouds Few 7500 ft
Few 11000 ft
Windchill 48 °F
Dew Point 37 °F
Humidity 63%
Rainfall 0.31 in
Snow Depth Not available.
UV 0 out of 12
Pollen .30 out of 12
Air Quality Not available.
Flu Activity Not available.
METAR KACV 250253Z AUTO 00000KT 10SM FEW075 FEW110 07/04 A3016 RMK AO2 RAE19 SLP220 P0002 60003 T00720044 51021

More Conditions Fewer Conditions

10-Day Weather Forecast

Almanac

Astronomy

Dec. 24, 2014 Rise Set
Actual Time
Civil Twilight
Nautical Twilight
Astronomical Twilight
Moon
Length of Visible Light
Length of Day
Tomorrow will be .
, % of the Moon is Illuminated

Today's Extremes

State Highs State Lows

Community

WunderPhotos

Upload Photos

1,780,225 photos uploaded!

WunderBlogs® & News

Nearby

Air Quality

  Air Quality AQ Index Pollutant
Not available.

Snow Depth

Station Depth Elevation

Earthquake Activity

City Distance Mag. Time & Date
Minimum magnitude displayed is 2.5.

Coastal Water Temperatures

Place Temperature

Nearby Weather Stations